createdAt,value
2022-12-18T00:00:59.233Z,18.77
2022-12-18T00:04:24.408Z,18.73
2022-12-18T00:07:29.132Z,18.79
2022-12-18T00:10:32.165Z,18.84
2022-12-18T00:13:35.668Z,18.77
2022-12-18T00:16:39.762Z,18.69
2022-12-18T00:19:42.090Z,18.57
2022-12-18T00:22:44.815Z,18.49
2022-12-18T00:25:47.316Z,18.43
2022-12-18T00:28:50.536Z,18.35
2022-12-18T00:31:54.882Z,18.30
2022-12-18T00:34:57.446Z,18.28
2022-12-18T00:38:00.402Z,18.22
2022-12-18T00:41:02.945Z,18.19
2022-12-18T00:44:05.851Z,18.19
2022-12-18T00:47:08.176Z,18.16
2022-12-18T00:50:10.683Z,18.09
2022-12-18T00:53:13.484Z,18.06
2022-12-18T00:56:15.706Z,18.05
2022-12-18T00:59:19.911Z,18.01
2022-12-18T01:02:22.273Z,17.99
2022-12-18T01:05:27.350Z,17.96
2022-12-18T01:08:29.400Z,17.91
2022-12-18T01:11:32.154Z,17.85
2022-12-18T01:14:34.586Z,17.85
2022-12-18T01:17:36.835Z,17.84
2022-12-18T01:20:39.410Z,17.82
2022-12-18T01:23:42.537Z,17.81
2022-12-18T01:26:45.119Z,17.77
2022-12-18T01:29:47.843Z,17.71
2022-12-18T01:32:50.545Z,17.67
2022-12-18T01:35:53.804Z,17.60
2022-12-18T01:39:00.190Z,17.58
2022-12-18T01:42:24.860Z,17.51
2022-12-18T01:45:33.439Z,17.48
2022-12-18T01:48:36.411Z,17.47
2022-12-18T01:51:39.961Z,17.45
2022-12-18T01:54:42.506Z,17.43
2022-12-18T01:57:45.598Z,17.37
2022-12-18T02:00:48.133Z,17.40
2022-12-18T02:03:52.569Z,17.34
2022-12-18T02:07:31.274Z,17.37
2022-12-18T02:10:44.582Z,17.34
2022-12-18T02:14:18.981Z,17.40
2022-12-18T02:17:24.395Z,17.35
2022-12-18T02:21:07.321Z,17.38
2022-12-18T02:24:52.431Z,17.33
2022-12-18T02:27:57.698Z,17.31
2022-12-18T02:31:03.949Z,17.31
2022-12-18T02:34:10.569Z,17.33
2022-12-18T02:37:18.801Z,17.31
2022-12-18T02:40:24.659Z,17.31
2022-12-18T02:43:28.449Z,17.31
2022-12-18T02:46:45.036Z,17.31
2022-12-18T02:49:59.376Z,17.26
2022-12-18T02:53:20.643Z,17.21
2022-12-18T02:56:34.522Z,17.21
2022-12-18T02:59:47.879Z,17.16
2022-12-18T03:03:25.541Z,17.16
2022-12-18T03:06:36.802Z,17.16
2022-12-18T03:09:43.666Z,17.14
2022-12-18T03:12:57.465Z,17.11
2022-12-18T03:16:02.081Z,17.13
2022-12-18T03:19:10.530Z,17.16
2022-12-18T03:22:14.637Z,17.11
2022-12-18T03:25:23.549Z,17.13
2022-12-18T03:28:33.247Z,17.21
2022-12-18T03:31:44.579Z,17.21
2022-12-18T03:34:49.662Z,17.26
2022-12-18T03:37:55.045Z,17.20
2022-12-18T03:41:02.462Z,17.21
2022-12-18T03:44:37.195Z,17.20
2022-12-18T03:47:59.904Z,17.19
2022-12-18T03:51:27.490Z,17.13
2022-12-18T03:54:32.602Z,17.09
2022-12-18T03:57:44.639Z,17.06
2022-12-18T04:00:49.134Z,17.04
2022-12-18T04:03:53.955Z,17.03
2022-12-18T04:06:57.358Z,17.04
2022-12-18T04:10:02.388Z,17.07
2022-12-18T04:13:07.170Z,17.06
2022-12-18T04:16:11.926Z,17.03
2022-12-18T04:19:16.917Z,17.02
2022-12-18T04:22:22.598Z,17.03
2022-12-18T04:25:30.492Z,17.04
2022-12-18T04:28:42.414Z,17.00
2022-12-18T04:31:45.433Z,16.99
2022-12-18T04:34:48.651Z,16.93
2022-12-18T04:37:51.036Z,16.89
2022-12-18T04:40:54.027Z,16.90
2022-12-18T04:44:02.266Z,16.86
2022-12-18T04:47:05.270Z,16.83
2022-12-18T04:50:07.942Z,16.80
2022-12-18T04:53:10.222Z,16.82
2022-12-18T04:56:17.107Z,16.83
2022-12-18T04:59:20.092Z,16.87
2022-12-18T05:02:22.070Z,16.86
2022-12-18T05:05:24.773Z,16.83
2022-12-18T05:08:27.658Z,16.82
2022-12-18T05:11:30.216Z,16.77
2022-12-18T05:14:32.194Z,16.75
2022-12-18T05:17:35.139Z,16.77
2022-12-18T05:20:38.755Z,16.75
2022-12-18T05:23:42.671Z,16.75
2022-12-18T05:26:46.616Z,16.79
2022-12-18T05:29:48.892Z,16.76
2022-12-18T05:32:51.293Z,16.73
2022-12-18T05:35:57.391Z,16.75
2022-12-18T05:38:59.492Z,16.76
2022-12-18T05:42:02.243Z,16.86
2022-12-18T05:45:05.348Z,16.89
2022-12-18T05:48:08.931Z,16.89
2022-12-18T05:51:14.236Z,16.97
2022-12-18T05:54:17.790Z,17.02
2022-12-18T05:57:21.860Z,17.06
2022-12-18T06:00:24.033Z,17.02
2022-12-18T06:03:32.219Z,16.99
2022-12-18T06:06:36.126Z,16.94
2022-12-18T06:09:38.071Z,16.92
2022-12-18T06:12:40.984Z,16.89
2022-12-18T06:15:44.337Z,16.92
2022-12-18T06:18:47.455Z,16.93
2022-12-18T06:21:50.657Z,16.93
2022-12-18T06:24:52.879Z,16.93
2022-12-18T06:27:54.999Z,16.92
2022-12-18T06:30:57.544Z,16.92
2022-12-18T06:34:00.334Z,16.90
2022-12-18T06:37:03.709Z,16.92
2022-12-18T06:40:06.593Z,16.90
2022-12-18T06:43:10.423Z,16.93
2022-12-18T06:46:13.704Z,16.90
2022-12-18T06:49:17.253Z,16.90
2022-12-18T06:52:19.820Z,16.92
2022-12-18T06:55:23.181Z,16.93
2022-12-18T06:58:25.304Z,16.94
2022-12-18T07:01:28.571Z,16.96
2022-12-18T07:04:31.772Z,16.92
2022-12-18T07:07:36.079Z,16.90
2022-12-18T07:10:48.210Z,16.92
2022-12-18T07:13:54.326Z,16.86
2022-12-18T07:16:56.319Z,16.84
2022-12-18T07:19:59.127Z,16.86
2022-12-18T07:23:06.871Z,16.82
2022-12-18T07:26:12.676Z,16.89
2022-12-18T07:29:14.623Z,16.90
2022-12-18T07:32:17.661Z,16.92
2022-12-18T07:35:24.774Z,16.84
2022-12-18T07:38:28.385Z,16.89
2022-12-18T07:41:30.462Z,16.87
2022-12-18T07:44:40.286Z,16.89
2022-12-18T07:47:42.697Z,16.87
2022-12-18T07:50:46.337Z,16.84
2022-12-18T07:53:52.011Z,16.87
2022-12-18T07:56:55.000Z,16.96
2022-12-18T07:59:56.889Z,16.99
2022-12-18T08:03:02.924Z,16.92
2022-12-18T08:06:07.744Z,16.90
2022-12-18T08:09:11.720Z,16.86
2022-12-18T08:12:13.643Z,16.87
2022-12-18T08:15:16.019Z,16.90
2022-12-18T08:18:18.206Z,16.92
2022-12-18T08:21:24.187Z,16.92
2022-12-18T08:24:27.151Z,16.87
2022-12-18T08:27:30.684Z,16.92
2022-12-18T08:30:33.316Z,16.96
2022-12-18T08:33:38.605Z,17.00
2022-12-18T08:36:41.348Z,17.06
2022-12-18T08:39:45.037Z,17.13
2022-12-18T08:43:06.855Z,17.19
2022-12-18T08:46:10.320Z,17.19
2022-12-18T08:49:13.552Z,17.14
2022-12-18T08:52:16.199Z,17.20
2022-12-18T08:55:19.285Z,17.27
2022-12-18T08:58:22.868Z,17.28
2022-12-18T09:01:25.568Z,17.26
2022-12-18T09:04:28.168Z,17.33
2022-12-18T09:07:30.521Z,17.28
2022-12-18T09:10:33.343Z,17.23
2022-12-18T09:13:35.270Z,17.23
2022-12-18T09:16:37.730Z,17.19
2022-12-18T09:19:40.766Z,17.21
2022-12-18T09:22:45.299Z,17.17
2022-12-18T09:25:48.669Z,17.19
2022-12-18T09:28:51.926Z,17.16
2022-12-18T09:31:54.881Z,17.17
2022-12-18T09:34:58.095Z,17.19
2022-12-18T09:38:00.288Z,17.21
2022-12-18T09:41:35.404Z,17.30
2022-12-18T09:44:45.378Z,17.33
2022-12-18T09:47:51.604Z,17.33
2022-12-18T09:50:59.792Z,17.30
2022-12-18T09:54:07.388Z,17.34
2022-12-18T09:57:18.483Z,17.34
2022-12-18T10:00:26.291Z,17.31
2022-12-18T10:03:28.872Z,17.31
2022-12-18T10:06:57.537Z,17.34
2022-12-18T10:10:21.613Z,17.31
2022-12-18T10:13:24.266Z,17.30
2022-12-18T10:17:03.116Z,17.33
2022-12-18T10:20:38.816Z,17.30
2022-12-18T10:24:03.270Z,17.31
2022-12-18T10:27:23.032Z,17.30
2022-12-18T10:30:26.908Z,17.30
2022-12-18T10:33:32.483Z,17.24
2022-12-18T10:36:35.081Z,17.27
2022-12-18T10:39:38.729Z,17.31
2022-12-18T10:42:43.325Z,17.30
2022-12-18T10:46:03.130Z,17.31
2022-12-18T10:49:06.674Z,17.31
2022-12-18T10:52:26.919Z,17.33
2022-12-18T10:55:35.171Z,17.33
2022-12-18T10:58:40.011Z,17.34
2022-12-18T11:01:59.790Z,17.31
2022-12-18T11:05:03.731Z,17.37
2022-12-18T11:08:05.795Z,17.33
2022-12-18T11:11:22.661Z,17.33
2022-12-18T11:14:35.345Z,17.33
2022-12-18T11:17:38.241Z,17.30
2022-12-18T11:20:40.548Z,17.33
2022-12-18T11:23:54.602Z,17.34
2022-12-18T11:27:01.898Z,17.35
2022-12-18T11:30:22.550Z,17.45
2022-12-18T11:33:25.016Z,17.43
2022-12-18T11:36:34.488Z,17.53
2022-12-18T11:39:47.256Z,17.43
2022-12-18T11:42:57.556Z,17.47
2022-12-18T11:46:17.677Z,17.44
2022-12-18T11:49:28.101Z,17.44
2022-12-18T11:52:41.039Z,17.43
2022-12-18T11:55:56.066Z,17.43
2022-12-18T11:59:27.381Z,17.45
2022-12-18T12:02:49.839Z,17.40
2022-12-18T12:05:55.382Z,17.41
2022-12-18T12:09:10.763Z,17.41
2022-12-18T12:12:49.295Z,17.40
2022-12-18T12:16:30.208Z,17.34
2022-12-18T12:20:00.201Z,17.35
2022-12-18T12:23:16.341Z,17.48
2022-12-18T12:26:36.858Z,17.48
2022-12-18T12:29:58.214Z,17.51
2022-12-18T12:33:09.488Z,17.53
2022-12-18T12:36:30.618Z,17.54
2022-12-18T12:39:38.419Z,17.48
2022-12-18T12:43:06.414Z,17.51
2022-12-18T12:46:15.760Z,17.53
2022-12-18T12:49:24.039Z,17.54
2022-12-18T12:52:36.867Z,17.55
2022-12-18T12:55:42.141Z,17.55
2022-12-18T12:59:08.232Z,17.54
2022-12-18T13:02:43.999Z,17.57
2022-12-18T13:06:01.317Z,17.60
2022-12-18T13:09:06.334Z,17.57
2022-12-18T13:12:33.306Z,17.55
2022-12-18T13:15:49.537Z,17.58
2022-12-18T13:19:00.041Z,17.64
2022-12-18T13:22:03.256Z,17.58
2022-12-18T13:25:33.268Z,17.55
2022-12-18T13:28:48.531Z,17.58
2022-12-18T13:31:51.810Z,17.55
2022-12-18T13:35:19.725Z,17.47
2022-12-18T13:38:38.168Z,17.57
2022-12-18T13:41:42.799Z,17.64
2022-12-18T13:44:45.584Z,17.71
2022-12-18T13:47:49.199Z,17.77
2022-12-18T13:51:02.317Z,17.84
2022-12-18T13:54:19.039Z,17.94
2022-12-18T13:57:33.675Z,17.98
2022-12-18T14:00:37.038Z,18.05
2022-12-18T14:03:39.309Z,18.06
2022-12-18T14:06:44.195Z,18.06
2022-12-18T14:10:01.907Z,18.09
2022-12-18T14:13:12.286Z,18.10
2022-12-18T14:16:18.144Z,18.15
2022-12-18T14:19:23.095Z,18.22
2022-12-18T14:22:30.549Z,18.37
2022-12-18T14:25:33.104Z,18.33
2022-12-18T14:28:46.724Z,18.35
2022-12-18T14:32:09.400Z,18.36
2022-12-18T14:35:15.197Z,18.37
2022-12-18T14:38:17.765Z,18.35
2022-12-18T14:41:20.907Z,18.40
2022-12-18T14:44:24.154Z,18.39
2022-12-18T14:47:26.686Z,18.36
2022-12-18T14:50:29.357Z,18.39
2022-12-18T14:53:36.320Z,18.36
2022-12-18T14:56:46.770Z,18.40
2022-12-18T14:59:49.139Z,18.45
2022-12-18T15:02:57.873Z,18.40
2022-12-18T15:06:19.104Z,18.46
2022-12-18T15:09:28.309Z,18.39
2022-12-18T15:12:39.194Z,18.30
2022-12-18T15:15:47.070Z,18.28
2022-12-18T15:18:53.299Z,18.26
2022-12-18T15:22:02.852Z,18.24
2022-12-18T15:25:33.707Z,18.19
2022-12-18T15:28:46.898Z,18.12
2022-12-18T15:32:07.949Z,18.06
2022-12-18T15:35:13.708Z,18.05
2022-12-18T15:38:20.983Z,18.01
2022-12-18T15:41:28.966Z,18.01
2022-12-18T15:44:36.893Z,17.92
2022-12-18T15:47:45.148Z,17.92
2022-12-18T15:50:49.306Z,17.92
2022-12-18T15:53:57.914Z,17.86
2022-12-18T15:57:19.059Z,17.84
2022-12-18T16:00:21.621Z,17.77
2022-12-18T16:03:23.734Z,17.74
2022-12-18T16:06:36.376Z,17.73
2022-12-18T16:09:49.201Z,17.64
2022-12-18T16:12:52.472Z,17.63
2022-12-18T16:15:55.476Z,17.53
2022-12-18T16:19:00.967Z,17.53
2022-12-18T16:22:08.341Z,17.50
2022-12-18T16:25:27.158Z,17.50
2022-12-18T16:28:34.168Z,17.45
2022-12-18T16:32:03.810Z,17.41
2022-12-18T16:35:07.677Z,17.40
2022-12-18T16:38:51.508Z,17.47
2022-12-18T16:41:55.507Z,17.41
2022-12-18T16:45:43.640Z,17.35
2022-12-18T16:48:57.598Z,17.35
2022-12-18T16:52:19.268Z,17.31
2022-12-18T16:55:57.223Z,17.28
2022-12-18T17:03:32.677Z,17.17
2022-12-18T17:07:04.812Z,17.17
2022-12-18T17:10:12.234Z,17.16
2022-12-18T17:13:25.784Z,17.09
2022-12-18T17:16:40.916Z,17.09
2022-12-18T17:23:35.337Z,17.13
2022-12-18T17:26:43.486Z,17.16
2022-12-18T17:29:55.865Z,17.20
2022-12-18T17:33:04.588Z,17.27
2022-12-18T17:36:12.293Z,17.31
2022-12-18T17:39:23.748Z,17.43
2022-12-18T17:42:35.163Z,17.53
2022-12-18T17:45:44.262Z,17.54
2022-12-18T17:48:53.449Z,17.67
2022-12-18T17:52:01.961Z,17.64
2022-12-18T17:55:12.327Z,17.64
2022-12-18T17:58:17.994Z,17.58
2022-12-18T18:01:25.765Z,17.51
2022-12-18T18:04:28.582Z,17.50
2022-12-18T18:07:31.090Z,17.44
2022-12-18T18:10:37.453Z,17.47
2022-12-18T18:13:58.466Z,17.44
2022-12-18T18:17:04.659Z,17.40
2022-12-18T18:20:08.688Z,17.41
2022-12-18T18:23:11.942Z,17.35
2022-12-18T18:26:15.994Z,17.35
2022-12-18T18:29:26.065Z,17.37
2022-12-18T18:32:29.506Z,17.35
2022-12-18T18:35:53.460Z,17.35
2022-12-18T18:38:55.394Z,17.33
2022-12-18T18:41:57.814Z,17.31
2022-12-18T18:45:00.472Z,17.31
2022-12-18T18:48:02.603Z,17.34
2022-12-18T18:51:08.656Z,17.31
2022-12-18T18:54:11.569Z,17.30
2022-12-18T18:57:24.212Z,17.27
2022-12-18T19:00:29.148Z,17.26
2022-12-18T19:03:32.565Z,17.24
2022-12-18T19:06:34.995Z,17.21
2022-12-18T19:09:39.243Z,17.21
2022-12-18T19:13:00.454Z,17.21
2022-12-18T19:16:06.422Z,17.21
2022-12-18T19:19:09.201Z,17.20
2022-12-18T19:22:12.795Z,17.21
2022-12-18T19:25:16.276Z,17.19
2022-12-18T19:28:22.577Z,17.14
2022-12-18T19:31:29.193Z,17.16
2022-12-18T19:34:35.759Z,17.14
2022-12-18T19:37:39.276Z,17.16
2022-12-18T19:40:45.061Z,17.16
2022-12-18T19:43:49.211Z,17.13
2022-12-18T19:46:52.491Z,17.10
2022-12-18T19:49:54.874Z,17.09
2022-12-18T19:52:58.063Z,17.07
2022-12-18T19:56:10.053Z,17.14
2022-12-18T19:59:14.826Z,17.11
2022-12-18T20:02:17.696Z,17.11
2022-12-18T20:05:25.218Z,17.13
2022-12-18T20:08:27.877Z,17.19
2022-12-18T20:11:40.955Z,17.34
2022-12-18T20:14:44.206Z,17.48
2022-12-18T20:17:48.876Z,17.58
2022-12-18T20:20:52.004Z,17.61
2022-12-18T20:23:56.537Z,17.70
2022-12-18T20:26:58.989Z,17.75
2022-12-18T20:30:01.526Z,17.85
2022-12-18T20:33:04.204Z,17.88
2022-12-18T20:36:12.826Z,17.82
2022-12-18T20:39:16.709Z,17.98
2022-12-18T20:42:19.386Z,17.99
2022-12-18T20:45:22.434Z,18.06
2022-12-18T20:48:26.741Z,17.98
2022-12-18T20:51:31.097Z,18.02
2022-12-18T20:54:33.651Z,17.86
2022-12-18T20:57:36.051Z,17.78
2022-12-18T21:00:41.307Z,17.74
2022-12-18T21:03:47.360Z,17.70
2022-12-18T21:06:59.187Z,17.64
2022-12-18T21:10:05.532Z,17.63
2022-12-18T21:13:08.931Z,17.61
2022-12-18T21:16:13.389Z,17.61
2022-12-18T21:19:19.146Z,17.55
2022-12-18T21:22:21.829Z,17.55
2022-12-18T21:25:24.420Z,17.50
2022-12-18T21:28:28.100Z,17.51
2022-12-18T21:31:36.563Z,17.50
2022-12-18T21:34:41.169Z,17.50
2022-12-18T21:37:46.389Z,17.74
2022-12-18T21:40:48.490Z,17.92
2022-12-18T21:44:06.625Z,17.77
2022-12-18T21:47:21.784Z,17.78
2022-12-18T21:50:26.428Z,17.79
2022-12-18T21:53:29.168Z,17.91
2022-12-18T21:56:46.840Z,18.10
2022-12-18T21:59:50.044Z,18.19
2022-12-18T22:03:03.426Z,18.16
2022-12-18T22:06:14.933Z,18.22
2022-12-18T22:09:20.060Z,18.29
2022-12-18T22:12:41.601Z,18.33
2022-12-18T22:15:47.050Z,18.29
2022-12-18T22:18:49.278Z,18.29
2022-12-18T22:21:51.960Z,18.29
2022-12-18T22:24:54.020Z,18.39
2022-12-18T22:28:15.006Z,18.36
2022-12-18T22:31:18.838Z,18.37
2022-12-18T22:34:23.374Z,18.29
2022-12-18T22:37:26.472Z,18.37
2022-12-18T22:40:29.851Z,18.47
2022-12-18T22:43:34.063Z,18.42
2022-12-18T22:46:42.659Z,18.46
2022-12-18T22:49:45.318Z,18.46
2022-12-18T22:52:47.775Z,18.52
2022-12-18T22:55:50.293Z,18.57
2022-12-18T22:58:54.122Z,18.52
2022-12-18T23:01:59.174Z,18.57
2022-12-18T23:05:01.939Z,18.61
2022-12-18T23:08:04.111Z,18.61
2022-12-18T23:11:07.492Z,18.60
2022-12-18T23:14:09.551Z,18.64
2022-12-18T23:17:12.295Z,18.63
2022-12-18T23:20:14.510Z,18.59
2022-12-18T23:23:18.302Z,18.63
2022-12-18T23:26:23.192Z,18.59
2022-12-18T23:29:26.052Z,18.59
2022-12-18T23:32:28.536Z,18.61
2022-12-18T23:35:30.922Z,18.67
2022-12-18T23:38:34.515Z,18.69
2022-12-18T23:41:37.018Z,18.64
2022-12-18T23:44:39.279Z,18.69
2022-12-18T23:47:41.854Z,18.71
2022-12-18T23:50:43.800Z,18.69
2022-12-18T23:53:46.720Z,18.70
2022-12-18T23:56:48.699Z,18.74
2022-12-18T23:59:53.269Z,18.76
